Time;durP1;ratioP1;P1;durP2;ratioP2;P2;SDS_P1;SDS_P2;PMS_P1;PMS_P2;Temp;Humidity;BMP_temperature;BMP_pressure;BME280_temperature;BME280_humidity;BME280_pressure;Samples;Min_cycle;Max_cycle;Signal;HPM_P1;HPM_P2
2022/06/14 00:02:53;;;;;;;10.55;3.90;;;23.00;99.90;;;;;;4989119;28;20040;-56
2022/06/14 00:05:19;;;;;;;6.05;2.55;;;22.80;99.90;;;;;;4989317;28;20018;-57
2022/06/14 00:07:45;;;;;;;6.15;3.40;;;22.40;99.90;;;;;;4989278;28;20038;-55
2022/06/14 00:10:10;;;;;;;6.20;3.60;;;22.70;99.90;;;;;;4993447;28;20057;-57
2022/06/14 00:12:36;;;;;;;7.50;3.10;;;22.90;99.90;;;;;;4990439;28;20034;-55
2022/06/14 00:15:02;;;;;;;6.03;3.03;;;23.00;99.90;;;;;;4988999;28;20026;-56
2022/06/14 00:17:28;;;;;;;5.40;2.30;;;22.90;99.90;;;;;;4988814;28;20126;-56
2022/06/14 00:19:53;;;;;;;8.20;2.80;;;22.20;99.70;;;;;;4989206;28;20102;-56
2022/06/14 00:22:19;;;;;;;6.00;2.88;;;22.40;99.90;;;;;;4990696;28;20038;-53
2022/06/14 00:24:45;;;;;;;4.28;2.70;;;22.50;99.90;;;;;;4992137;28;20440;-56
2022/06/14 00:27:10;;;;;;;3.97;2.22;;;22.40;99.90;;;;;;4988516;28;20038;-55
2022/06/14 00:29:36;;;;;;;4.88;2.50;;;22.30;99.90;;;;;;4988898;28;20495;-56
2022/06/14 00:32:02;;;;;;;5.25;2.30;;;22.00;99.90;;;;;;4989036;28;20104;-56
2022/06/14 00:34:28;;;;;;;3.25;2.42;;;22.40;99.90;;;;;;4990940;28;20117;-56
2022/06/14 00:36:55;;;;;;;5.50;2.42;;;22.10;99.90;;;;;;4990963;28;20082;-56
2022/06/14 00:39:21;;;;;;;5.22;2.53;;;22.20;99.90;;;;;;4988773;28;20487;-56
2022/06/14 00:41:51;;;;;;;5.72;2.40;;;22.00;99.90;;;;;;4988299;28;20616;-57
2022/06/14 00:44:26;;;;;;;3.17;2.30;;;21.80;99.90;;;;;;4988457;28;20023;-56
2022/06/14 00:47:12;;;;;;;2.53;1.98;;;22.00;99.90;;;;;;4988907;28;20058;-54
2022/06/14 00:50:01;;;;;;;4.18;2.00;;;21.90;99.90;;;;;;4990203;28;20010;-56
2022/06/14 00:52:47;;;;;;;3.42;2.10;;;22.10;99.90;;;;;;4988988;28;20066;-50
2022/06/14 00:55:25;;;;;;;3.40;1.95;;;21.90;99.90;;;;;;4987958;28;20133;-56
2022/06/14 00:58:01;;;;;;;4.85;2.30;;;22.10;99.90;;;;;;4991972;28;20081;-56
2022/06/14 01:00:35;;;;;;;6.93;2.20;;;22.20;99.90;;;;;;4988476;28;20026;-56
2022/06/14 01:03:13;;;;;;;6.55;2.10;;;22.00;99.80;;;;;;4988387;28;20446;-56
2022/06/14 01:06:07;;;;;;;7.28;2.22;;;21.80;99.90;;;;;;4988549;28;20054;-56
2022/06/14 01:09:06;;;;;;;4.40;2.40;;;21.70;99.90;;;;;;4988118;28;20037;-56
2022/06/14 01:11:41;;;;;;;5.07;2.40;;;22.00;99.90;;;;;;4988176;28;20474;-56
2022/06/14 01:14:10;;;;;;;3.83;2.13;;;22.20;99.90;;;;;;4988498;28;20450;-56
2022/06/14 01:16:37;;;;;;;5.07;2.10;;;22.20;99.90;;;;;;4989889;28;20166;-56
2022/06/14 01:19:08;;;;;;;4.10;2.20;;;21.90;99.90;;;;;;4991082;28;20034;-56
2022/06/14 01:21:33;;;;;;;5.32;2.05;;;21.70;99.90;;;;;;4987552;28;20459;-52
2022/06/14 01:23:59;;;;;;;4.57;2.30;;;22.00;99.90;;;;;;4988284;28;20133;-56
2022/06/14 01:26:27;;;;;;;5.10;2.03;;;21.40;99.90;;;;;;4988293;28;20038;-55
2022/06/14 01:29:00;;;;;;;7.82;2.15;;;21.70;99.90;;;;;;4988410;28;20059;-56
2022/06/14 01:31:27;;;;;;;3.97;2.23;;;21.70;99.90;;;;;;4990554;28;20034;-56
2022/06/14 01:33:58;;;;;;;3.97;1.95;;;21.70;99.90;;;;;;4993118;28;20058;-56
2022/06/14 01:36:28;;;;;;;3.53;2.15;;;21.60;99.90;;;;;;4992385;28;20051;-57
2022/06/14 01:38:57;;;;;;;3.50;2.10;;;21.40;99.90;;;;;;4991480;28;20026;-56
2022/06/14 01:41:38;;;;;;;3.90;2.13;;;21.70;99.90;;;;;;4988941;28;20073;-56
2022/06/14 01:44:03;;;;;;;3.55;1.90;;;21.70;99.90;;;;;;4991856;28;20172;-56
2022/06/14 01:46:36;;;;;;;4.95;2.10;;;21.70;99.90;;;;;;4993889;28;20554;-54
2022/06/14 01:52:24;;;;;;;4.82;2.17;;;21.70;99.90;;;;;;4991365;28;20033;-54
2022/06/14 01:55:25;;;;;;;5.65;1.98;;;21.80;99.90;;;;;;4994745;28;20042;-56
2022/06/14 01:57:51;;;;;;;2.88;1.60;;;21.50;99.90;;;;;;4994937;28;20034;-55
2022/06/14 02:00:24;;;;;;;4.72;2.10;;;21.60;99.90;;;;;;4991657;28;20042;-57
2022/06/14 02:06:22;;;;;;;4.57;2.20;;;21.60;99.90;;;;;;4993332;28;20038;-56
2022/06/14 02:09:00;;;;;;;4.22;2.00;;;21.10;99.90;;;;;;4991546;28;20026;-56
2022/06/14 02:11:34;;;;;;;5.95;2.38;;;21.50;99.90;;;;;;4991322;28;20023;-56
2022/06/14 02:14:37;;;;;;;3.92;2.17;;;21.50;99.90;;;;;;4991682;28;20019;-56
2022/06/14 02:17:07;;;;;;;3.90;2.03;;;21.00;99.90;;;;;;4902677;29;20520;-56
2022/06/14 02:19:45;;;;;;;3.75;2.00;;;21.20;99.90;;;;;;4914585;29;20052;-56
2022/06/14 02:22:21;;;;;;;4.65;2.30;;;21.70;99.90;;;;;;4911932;29;20060;-56
2022/06/14 02:25:30;;;;;;;4.57;2.17;;;20.80;99.90;;;;;;4915853;29;20256;-56
2022/06/14 02:28:19;;;;;;;4.40;2.05;;;21.10;99.90;;;;;;4858288;29;20042;-56
2022/06/14 02:31:09;;;;;;;5.03;2.10;;;21.50;99.90;;;;;;4858406;29;20052;-56
2022/06/14 02:33:40;;;;;;;3.55;2.10;;;21.70;99.90;;;;;;4858214;29;20157;-56
2022/06/14 02:36:16;;;;;;;4.97;1.98;;;22.00;99.90;;;;;;4858239;29;20033;-56
2022/06/14 02:38:56;;;;;;;5.40;2.08;;;22.00;99.90;;;;;;4858071;29;20089;-56
2022/06/14 02:41:58;;;;;;;4.65;2.13;;;21.90;99.90;;;;;;4858727;29;20052;-56
2022/06/14 02:44:38;;;;;;;2.85;2.00;;;21.80;99.90;;;;;;4849445;29;20688;-56
2022/06/14 02:47:09;;;;;;;4.88;2.20;;;21.60;99.90;;;;;;4858147;29;20050;-55
2022/06/14 02:49:39;;;;;;;3.13;1.83;;;21.50;99.90;;;;;;4858609;29;20076;-56
2022/06/14 02:52:10;;;;;;;3.30;2.00;;;21.60;99.90;;;;;;4859165;29;20041;-56
2022/06/14 02:54:45;;;;;;;5.05;2.20;;;21.10;99.90;;;;;;4903478;29;20591;-57
2022/06/14 02:57:40;;;;;;;3.67;2.08;;;21.40;99.90;;;;;;4910238;29;20036;-56
2022/06/14 03:00:14;;;;;;;3.67;2.00;;;21.40;99.90;;;;;;4990054;28;20069;-56
2022/06/14 03:02:46;;;;;;;;;;;20.60;99.90;;;;;;4990957;28;20069;-57
2022/06/14 03:05:20;;;;;;;3.67;2.05;;;21.30;99.90;;;;;;4990328;28;19909;-54
2022/06/14 03:07:56;;;;;;;4.82;2.10;;;20.90;99.90;;;;;;4975729;28;20030;-53
2022/06/14 03:10:26;;;;;;;5.03;2.15;;;21.30;99.90;;;;;;4992992;28;20550;-56
2022/06/14 03:13:24;;;;;;;3.33;2.17;;;20.90;99.90;;;;;;4992046;28;20054;-56
2022/06/14 03:16:01;;;;;;;4.65;1.80;;;21.10;99.90;;;;;;4991082;28;20392;-56
2022/06/14 03:18:36;;;;;;;4.38;2.15;;;21.10;99.90;;;;;;4990400;28;20030;-54
2022/06/14 03:21:35;;;;;;;3.78;2.08;;;21.20;99.90;;;;;;4989673;28;20372;-56
2022/06/14 03:24:21;;;;;;;5.13;2.28;;;21.30;99.90;;;;;;4987978;28;20073;-55
2022/06/14 03:27:10;;;;;;;5.18;2.30;;;21.10;99.90;;;;;;4990062;28;20395;-54
2022/06/14 03:30:02;;;;;;;2.88;2.00;;;21.50;99.90;;;;;;4982246;28;20061;-56
2022/06/14 03:32:58;;;;;;;2.30;1.90;;;21.50;99.90;;;;;;4990047;28;20023;-56
2022/06/14 03:35:29;;;;;;;3.42;1.90;;;21.40;99.90;;;;;;4989852;28;20053;-56
2022/06/14 03:37:59;;;;;;;3.05;2.10;;;21.10;99.90;;;;;;4989997;28;20400;-51
2022/06/14 03:40:25;;;;;;;3.83;1.98;;;20.80;99.90;;;;;;4992034;28;20034;-56
2022/06/14 03:42:51;;;;;;;3.70;2.10;;;21.10;99.90;;;;;;4991231;28;20045;-56
2022/06/14 03:45:23;;;;;;;4.93;2.30;;;21.00;99.90;;;;;;4989692;28;20053;-56
2022/06/14 03:47:49;;;;;;;3.70;2.10;;;21.30;99.90;;;;;;4989453;28;20581;-56
2022/06/14 03:50:22;;;;;;;3.65;2.00;;;21.40;99.90;;;;;;4989301;28;20066;-56
2022/06/14 03:52:53;;;;;;;;;;;21.00;99.90;;;;;;4975407;28;20043;-56
2022/06/14 03:55:44;;;;;;;6.25;2.20;;;20.80;99.90;;;;;;4991728;28;19925;-55
2022/06/14 03:58:16;;;;;;;6.55;2.30;;;20.40;99.90;;;;;;4989377;28;20029;-55
2022/06/14 04:00:53;;;;;;;4.07;2.25;;;20.20;99.90;;;;;;4990294;28;20022;-56
2022/06/14 04:03:32;;;;;;;4.90;2.58;;;21.00;99.90;;;;;;4990765;28;20046;-56
2022/06/14 04:06:14;;;;;;;3.92;2.15;;;21.30;99.90;;;;;;4989267;28;20034;-56
2022/06/14 04:09:25;;;;;;;3.50;1.90;;;21.20;99.90;;;;;;4988841;28;20092;-55
2022/06/14 04:12:21;;;;;;;3.72;2.00;;;21.40;99.90;;;;;;4987768;28;20112;-55
2022/06/14 04:15:06;;;;;;;5.32;2.10;;;21.50;99.90;;;;;;4988920;28;20164;-56
2022/06/14 04:17:55;;;;;;;4.13;2.05;;;21.20;99.90;;;;;;4988530;28;20027;-56
2022/06/14 04:20:36;;;;;;;4.93;2.08;;;21.30;99.90;;;;;;4988958;28;20019;-56
2022/06/14 04:23:12;;;;;;;3.65;2.05;;;21.20;99.90;;;;;;4988956;28;20069;-56
2022/06/14 04:25:53;;;;;;;3.53;2.38;;;21.20;99.90;;;;;;4989614;28;20368;-57
2022/06/14 04:28:29;;;;;;;3.38;2.05;;;21.00;99.90;;;;;;4988484;28;20032;-56
2022/06/14 04:31:12;;;;;;;4.82;2.00;;;21.40;99.90;;;;;;4991032;28;20026;-56
2022/06/14 04:33:49;;;;;;;5.32;2.40;;;21.40;99.90;;;;;;4990283;28;20065;-56
2022/06/14 04:36:22;;;;;;;3.92;2.20;;;21.40;99.90;;;;;;4988600;28;20034;-55
2022/06/14 04:39:04;;;;;;;4.95;2.17;;;21.60;99.90;;;;;;4988795;28;20061;-56
2022/06/14 04:41:57;;;;;;;5.85;2.33;;;21.40;99.90;;;;;;4989879;28;20038;-56
2022/06/14 04:44:43;;;;;;;5.40;2.40;;;21.70;99.90;;;;;;4988277;28;20089;-56
2022/06/14 04:47:27;;;;;;;3.33;2.13;;;21.50;99.90;;;;;;4988455;28;20026;-56
2022/06/14 04:50:06;;;;;;;3.50;2.00;;;21.40;99.90;;;;;;4974947;28;20042;-56
2022/06/14 04:52:41;;;;;;;3.30;2.20;;;21.10;99.90;;;;;;4989770;28;20487;-53
2022/06/14 04:55:17;;;;;;;4.95;2.08;;;20.60;99.90;;;;;;4991919;28;20392;-56
2022/06/14 04:57:54;;;;;;;3.95;2.10;;;20.90;99.90;;;;;;4989597;28;20033;-56
2022/06/14 05:00:23;;;;;;;4.20;2.10;;;20.80;99.90;;;;;;4988542;28;20060;-56
2022/06/14 05:02:49;;;;;;;4.22;2.20;;;20.80;99.90;;;;;;4987947;28;20034;-56
2022/06/14 05:05:30;;;;;;;3.70;2.33;;;21.50;99.90;;;;;;4988212;28;20037;-56
2022/06/14 05:08:08;;;;;;;3.78;2.30;;;21.90;99.90;;;;;;4973497;28;20027;-55
2022/06/14 05:10:42;;;;;;;3.95;2.15;;;21.50;99.90;;;;;;4990267;28;20157;-54
2022/06/14 05:13:13;;;;;;;3.15;1.90;;;21.60;99.90;;;;;;4992006;28;20039;-52
2022/06/14 05:15:47;;;;;;;5.07;2.28;;;21.60;99.90;;;;;;4989606;28;20029;-56
2022/06/14 05:18:24;;;;;;;3.85;2.13;;;22.00;99.90;;;;;;4988605;28;20030;-56
2022/06/14 05:21:00;;;;;;;6.25;2.30;;;21.60;99.90;;;;;;4989619;28;20583;-54
2022/06/14 05:23:29;;;;;;;6.57;2.47;;;22.50;99.90;;;;;;4988336;28;20042;-56
2022/06/14 05:26:13;;;;;;;4.88;2.30;;;22.50;99.90;;;;;;4988343;28;20029;-56
2022/06/14 05:29:00;;;;;;;6.10;2.45;;;22.60;99.90;;;;;;4988893;28;20022;-56
2022/06/14 05:31:29;;;;;;;4.35;2.45;;;22.80;99.90;;;;;;4988245;28;20037;-56
2022/06/14 05:34:20;;;;;;;5.55;2.30;;;23.00;99.90;;;;;;4989797;28;20022;-56
2022/06/14 05:36:57;;;;;;;4.18;2.28;;;23.60;99.90;;;;;;4988285;28;20026;-53
2022/06/14 05:39:26;;;;;;;4.50;2.20;;;24.50;99.50;;;;;;4988448;28;20070;-56
2022/06/14 05:42:08;;;;;;;3.13;2.33;;;24.80;99.10;;;;;;4988095;28;20057;-56
2022/06/14 05:44:43;;;;;;;5.20;2.20;;;25.20;98.80;;;;;;4987648;28;20483;-56
2022/06/14 05:47:14;;;;;;;4.05;2.20;;;25.50;98.40;;;;;;4988044;28;20030;-52
2022/06/14 05:49:52;;;;;;;4.68;2.38;;;25.80;98.30;;;;;;4988742;28;20030;-55
2022/06/14 05:52:30;;;;;;;5.57;2.28;;;25.40;98.00;;;;;;4987305;28;20026;-52
2022/06/14 05:55:11;;;;;;;4.90;2.45;;;26.10;97.60;;;;;;4989399;28;20081;-57
2022/06/14 05:58:13;;;;;;;4.10;2.17;;;26.60;97.20;;;;;;4987966;28;20041;-57
2022/06/14 06:01:09;;;;;;;5.85;2.17;;;26.60;97.50;;;;;;4987473;28;20117;-56
2022/06/14 06:03:46;;;;;;;3.35;2.38;;;25.90;98.00;;;;;;4986671;28;20042;-57
2022/06/14 06:06:17;;;;;;;6.72;2.20;;;26.40;97.10;;;;;;4986295;28;20038;-57
2022/06/14 06:08:59;;;;;;;4.13;2.30;;;27.10;97.00;;;;;;4987820;28;20599;-56
2022/06/14 06:11:32;;;;;;;4.72;2.28;;;27.00;96.90;;;;;;4987914;28;20062;-56
2022/06/14 06:14:01;;;;;;;6.18;2.40;;;28.10;96.20;;;;;;4987577;28;20027;-57
2022/06/14 06:17:05;;;;;;;5.13;2.38;;;27.90;95.80;;;;;;4990351;28;20518;-57
2022/06/14 06:19:52;;;;;;;6.82;2.58;;;27.20;96.60;;;;;;4989261;28;20014;-58
2022/06/14 06:22:27;;;;;;;5.82;2.40;;;29.20;94.90;;;;;;4990495;28;20037;-57
2022/06/14 06:25:02;;;;;;;5.32;2.28;;;28.50;94.90;;;;;;4994525;28;20392;-57
2022/06/14 06:27:35;;;;;;;5.10;2.70;;;28.40;95.80;;;;;;4990636;28;20038;-57
2022/06/14 06:30:13;;;;;;;4.45;2.10;;;28.90;94.30;;;;;;4991470;28;20172;-57
2022/06/14 06:32:40;;;;;;;6.13;2.78;;;30.90;93.70;;;;;;4990930;28;20483;-57
2022/06/14 06:35:07;;;;;;;6.88;2.47;;;31.40;91.90;;;;;;4989387;28;20030;-57
2022/06/14 06:37:32;;;;;;;4.70;2.22;;;31.00;92.50;;;;;;4992262;28;20030;-57
2022/06/14 06:40:01;;;;;;;3.95;2.60;;;31.40;92.80;;;;;;4994820;28;20038;-57
2022/06/14 06:42:48;;;;;;;3.58;2.40;;;30.80;93.40;;;;;;4990551;28;20037;-57
2022/06/14 06:45:29;;;;;;;4.95;2.60;;;32.00;92.30;;;;;;4990701;28;20391;-57
2022/06/14 06:48:17;;;;;;;3.85;2.30;;;30.70;92.80;;;;;;4990787;28;20072;-57
2022/06/14 06:50:47;;;;;;;3.47;2.50;;;29.40;93.30;;;;;;4990695;28;20037;-57
2022/06/14 06:53:14;;;;;;;5.10;2.50;;;29.30;94.40;;;;;;4989074;28;20026;-57
2022/06/14 06:55:43;;;;;;;3.63;2.10;;;29.70;94.40;;;;;;4990959;28;20133;-57
2022/06/14 06:58:24;;;;;;;4.28;2.58;;;29.50;94.30;;;;;;4993896;28;20026;-57
2022/06/14 07:00:53;;;;;;;5.55;2.47;;;30.70;92.90;;;;;;4993701;28;20085;-57
2022/06/14 07:03:19;;;;;;;5.38;2.78;;;31.30;92.40;;;;;;4990464;28;20038;-57
2022/06/14 07:05:52;;;;;;;6.00;2.40;;;33.30;91.20;;;;;;4990341;28;20037;-57
2022/06/14 07:08:33;;;;;;;;;;;32.70;91.30;;;;;;4990886;28;20026;-57
2022/06/14 07:10:59;;;;;;;4.00;2.30;;;33.90;90.70;;;;;;4990393;28;19956;-57
2022/06/14 07:13:49;;;;;;;2.95;2.22;;;31.50;92.30;;;;;;4992706;28;20475;-57
2022/06/14 07:16:30;;;;;;;5.43;2.95;;;31.10;93.50;;;;;;4989815;28;20026;-57
2022/06/14 07:19:17;;;;;;;4.50;2.45;;;32.60;91.70;;;;;;4992174;28;20027;-57
2022/06/14 07:21:55;;;;;;;3.88;2.47;;;32.40;91.20;;;;;;4991019;28;20625;-57
2022/06/14 07:24:33;;;;;;;6.38;2.38;;;30.80;93.00;;;;;;4990126;28;20037;-57
2022/06/14 07:27:12;;;;;;;3.55;2.50;;;33.10;91.50;;;;;;4989565;28;20041;-57
2022/06/14 07:29:48;;;;;;;7.18;2.80;;;33.30;91.20;;;;;;4989763;28;20427;-57
2022/06/14 07:32:25;;;;;;;4.90;2.53;;;33.00;91.80;;;;;;4990239;28;20029;-57
2022/06/14 07:34:52;;;;;;;4.45;2.67;;;34.40;90.50;;;;;;4974717;28;20495;-57
2022/06/14 07:37:36;;;;;;;5.03;2.70;;;33.30;90.90;;;;;;4992974;28;20026;-57
2022/06/14 07:40:19;;;;;;;4.05;2.60;;;33.70;91.00;;;;;;4992368;28;20027;-57
2022/06/14 07:43:00;;;;;;;5.97;2.75;;;34.60;89.60;;;;;;4990936;28;20572;-57
2022/06/14 07:45:33;;;;;;;6.22;2.85;;;36.00;90.10;;;;;;4989491;28;20039;-57
2022/06/14 07:48:16;;;;;;;7.70;2.70;;;33.90;90.20;;;;;;4989600;28;20125;-57
2022/06/14 07:50:56;;;;;;;7.47;2.63;;;35.40;88.50;;;;;;4989653;28;20038;-58
2022/06/14 07:53:32;;;;;;;3.95;2.45;;;33.80;90.20;;;;;;4989605;28;20042;-57
2022/06/14 07:56:16;;;;;;;4.88;2.63;;;35.10;90.50;;;;;;4988973;28;20552;-57
2022/06/14 07:58:51;;;;;;;;;;;36.20;88.20;;;;;;4974043;28;20575;-57
2022/06/14 08:01:35;;;;;;;5.05;2.50;;;35.50;87.70;;;;;;4989235;28;19906;-57
2022/06/14 08:04:16;;;;;;;4.72;2.33;;;35.70;87.60;;;;;;4992025;28;20034;-57
2022/06/14 08:07:03;;;;;;;6.78;2.83;;;37.50;84.70;;;;;;4990360;28;20395;-57
2022/06/14 08:09:59;;;;;;;5.40;2.50;;;35.70;86.70;;;;;;4989045;28;20035;-58
2022/06/14 08:12:25;;;;;;;5.82;2.55;;;36.40;86.00;;;;;;4988969;28;20406;-57
2022/06/14 08:14:57;;;;;;;4.93;2.70;;;35.50;86.70;;;;;;4989096;28;20034;-57
2022/06/14 08:17:35;;;;;;;4.43;2.58;;;37.50;84.50;;;;;;4989104;28;20026;-57
2022/06/14 08:20:26;;;;;;;4.80;2.67;;;33.60;90.10;;;;;;4989547;28;20101;-57
2022/06/14 08:22:56;;;;;;;4.75;2.65;;;35.50;87.70;;;;;;4964379;28;20131;-57
2022/06/14 08:25:28;;;;;;;5.40;2.58;;;35.60;86.80;;;;;;4991540;28;20054;-57
2022/06/14 08:28:25;;;;;;;7.70;2.72;;;33.20;90.00;;;;;;4990775;28;20479;-57
2022/06/14 08:31:06;;;;;;;6.03;2.60;;;33.40;90.00;;;;;;4992185;28;20040;-57
2022/06/14 08:33:38;;;;;;;4.68;2.63;;;35.40;88.70;;;;;;4988665;28;20490;-58
2022/06/14 08:36:11;;;;;;;5.07;2.38;;;35.40;88.30;;;;;;4988526;28;20026;-57
2022/06/14 08:38:46;;;;;;;3.28;2.20;;;36.00;87.90;;;;;;4988597;28;20062;-57
2022/06/14 08:41:12;;;;;;;4.18;2.65;;;36.20;86.60;;;;;;4988578;28;20095;-57
2022/06/14 08:43:43;;;;;;;4.35;2.30;;;37.00;87.40;;;;;;4988893;28;20487;-57
2022/06/14 08:46:41;;;;;;;6.55;2.60;;;37.20;85.50;;;;;;4992601;28;20050;-58
2022/06/14 08:49:26;;;;;;;6.85;2.53;;;36.70;84.80;;;;;;4931812;29;20051;-57
2022/06/14 08:52:03;;;;;;;4.68;2.60;;;35.30;87.60;;;;;;4932325;29;20505;-57
2022/06/14 08:54:56;;;;;;;4.45;2.30;;;35.80;87.30;;;;;;4928423;29;20504;-58
2022/06/14 08:57:30;;;;;;;5.63;2.60;;;36.50;85.60;;;;;;4870440;29;20045;-57
2022/06/14 09:00:23;;;;;;;4.20;2.67;;;36.70;85.10;;;;;;4871006;29;20178;-57
2022/06/14 09:03:04;;;;;;;3.03;2.50;;;36.10;86.60;;;;;;4870509;29;20529;-57
2022/06/14 09:05:53;;;;;;;4.45;2.70;;;36.90;85.00;;;;;;4870450;29;20041;-57
2022/06/14 09:08:49;;;;;;;4.07;2.35;;;37.20;84.70;;;;;;4851421;29;20050;-57
2022/06/14 09:11:43;;;;;;;4.80;2.40;;;34.90;87.50;;;;;;4852259;29;20539;-58
2022/06/14 09:14:20;;;;;;;5.88;2.83;;;36.00;86.00;;;;;;4841938;29;20090;-58
2022/06/14 09:17:33;;;;;;;4.07;2.35;;;36.20;85.60;;;;;;4841887;29;20539;-58
2022/06/14 09:20:03;;;;;;;4.13;2.60;;;36.50;85.00;;;;;;4841052;29;20106;-57
2022/06/14 09:22:46;;;;;;;4.90;2.80;;;34.90;87.30;;;;;;4854355;29;20034;-57
2022/06/14 09:25:52;;;;;;;4.40;2.80;;;35.70;85.10;;;;;;4867406;29;20032;-57
2022/06/14 09:28:24;;;;;;;4.82;2.47;;;35.90;87.30;;;;;;4893499;29;20047;-57
2022/06/14 09:31:04;;;;;;;4.55;2.60;;;37.10;86.40;;;;;;4910675;29;20028;-58
2022/06/14 09:33:47;;;;;;;4.50;2.45;;;36.80;85.50;;;;;;4917409;29;20127;-58
2022/06/14 09:36:34;;;;;;;;;;;37.10;83.90;;;;;;4946973;29;20034;-57
2022/06/14 09:39:30;;;;;;;4.20;2.20;;;36.80;86.60;;;;;;4946951;29;20014;-57
2022/06/14 09:42:07;;;;;;;4.38;2.80;;;37.90;84.10;;;;;;4946776;29;20045;-57
2022/06/14 09:44:53;;;;;;;5.93;2.85;;;36.20;88.10;;;;;;4955640;28;20053;-57
2022/06/14 09:47:40;;;;;;;7.70;2.85;;;34.40;90.30;;;;;;4987709;28;20034;-57
2022/06/14 09:50:27;;;;;;;4.32;2.30;;;35.00;89.90;;;;;;4988152;28;20054;-58
2022/06/14 09:53:42;;;;;;;4.57;2.70;;;35.80;90.00;;;;;;4973554;28;20157;-57
2022/06/14 09:56:23;;;;;;;6.03;2.60;;;34.00;90.70;;;;;;4973904;28;20041;-58
2022/06/14 09:59:17;;;;;;;4.60;2.80;;;34.50;90.90;;;;;;4976801;28;20403;-57
2022/06/14 10:02:14;;;;;;;3.95;2.85;;;34.20;91.00;;;;;;4966194;28;20399;-58
2022/06/14 10:04:51;;;;;;;5.35;2.78;;;34.60;90.20;;;;;;4992429;28;20105;-57
2022/06/14 10:07:49;;;;;;;9.68;2.92;;;34.50;90.30;;;;;;4991099;28;20022;-58
2022/06/14 10:10:26;;;;;;;5.78;2.90;;;34.80;90.40;;;;;;4991377;28;20034;-58
2022/06/14 10:13:10;;;;;;;4.75;2.80;;;34.00;91.30;;;;;;4994711;28;20505;-58
2022/06/14 10:16:03;;;;;;;7.82;3.08;;;34.20;90.90;;;;;;4991024;28;20614;-58
2022/06/14 10:19:10;;;;;;;6.90;2.67;;;33.40;91.60;;;;;;4991247;28;20037;-57
2022/06/14 10:21:41;;;;;;;5.82;2.90;;;33.80;91.30;;;;;;4933214;29;20294;-58
2022/06/14 10:24:18;;;;;;;4.30;2.80;;;33.60;92.00;;;;;;4933783;29;20385;-58
2022/06/14 10:29:50;;;;;;;6.60;2.85;;;33.90;91.80;;;;;;4933772;29;20050;-57
2022/06/14 10:32:22;;;;;;;4.55;3.20;;;34.40;91.30;;;;;;4933979;29;20110;-57
2022/06/14 10:35:01;;;;;;;4.70;3.13;;;34.80;90.50;;;;;;4933493;29;20063;-58
2022/06/14 10:37:45;;;;;;;4.55;2.75;;;35.10;91.00;;;;;;4933745;29;20049;-58
2022/06/14 10:40:47;;;;;;;4.28;2.70;;;34.30;90.90;;;;;;4934810;29;20178;-57
2022/06/14 10:43:40;;;;;;;5.53;2.95;;;34.50;91.30;;;;;;4931330;29;20138;-58
2022/06/14 10:46:22;;;;;;;4.83;2.70;;;35.10;90.60;;;;;;4933921;29;20063;-58
2022/06/14 10:49:41;;;;;;;4.35;2.95;;;35.70;90.70;;;;;;4933164;29;20047;-58
2022/06/14 10:52:12;;;;;;;4.82;2.92;;;35.30;90.70;;;;;;4878318;29;20120;-58
2022/06/14 10:54:59;;;;;;;4.65;2.67;;;35.20;91.00;;;;;;4882083;29;20044;-58
2022/06/14 10:58:02;;;;;;;4.90;2.85;;;35.30;91.10;;;;;;4914231;29;20081;-58
2022/06/14 11:00:53;;;;;;;3.93;2.50;;;34.90;90.90;;;;;;4914029;29;20131;-57
2022/06/14 11:03:34;;;;;;;7.72;3.20;;;34.50;91.20;;;;;;4913763;29;20311;-58
2022/06/14 11:06:22;;;;;;;6.35;3.10;;;34.50;91.20;;;;;;4913832;29;20047;-58
2022/06/14 11:09:20;;;;;;;5.35;2.67;;;34.10;91.00;;;;;;4872279;29;20045;-57
2022/06/14 11:12:13;;;;;;;6.50;3.10;;;34.30;90.90;;;;;;4872289;29;20036;-57
2022/06/14 11:15:06;;;;;;;5.20;2.97;;;34.20;92.00;;;;;;4872331;29;20582;-58
2022/06/14 11:17:39;;;;;;;3.97;2.95;;;33.80;91.50;;;;;;4872236;29;20130;-58
2022/06/14 11:20:16;;;;;;;;;;;34.30;92.10;;;;;;4874211;29;20061;-58
2022/06/14 11:22:54;;;;;;;6.55;2.88;;;34.30;91.60;;;;;;4876044;29;19924;-58
2022/06/14 11:25:47;;;;;;;4.05;3.05;;;34.10;92.10;;;;;;4871871;29;20492;-57
2022/06/14 11:28:51;;;;;;;5.43;2.83;;;34.20;91.80;;;;;;4953195;29;20065;-58
2022/06/14 11:31:29;;;;;;;4.03;2.88;;;34.30;91.60;;;;;;4949002;29;20255;-57
2022/06/14 11:34:23;;;;;;;6.80;3.35;;;33.80;92.30;;;;;;4952512;29;20039;-58
2022/06/14 11:37:19;;;;;;;7.22;3.00;;;34.00;92.50;;;;;;4952543;29;20086;-58
2022/06/14 11:40:07;;;;;;;6.43;3.10;;;34.70;91.30;;;;;;4952090;29;20047;-57
2022/06/14 11:43:24;;;;;;;5.20;3.05;;;33.40;92.00;;;;;;4947165;29;20043;-58
2022/06/14 11:46:05;;;;;;;3.80;2.90;;;34.60;91.70;;;;;;4883594;29;20056;-57
2022/06/14 11:48:43;;;;;;;7.15;2.90;;;34.10;91.20;;;;;;4911781;29;20047;-58
2022/06/14 11:51:46;;;;;;;3.50;2.65;;;34.20;91.20;;;;;;4913228;29;20028;-57
2022/06/14 11:54:17;;;;;;;6.85;3.22;;;34.70;91.40;;;;;;4913001;29;20092;-57
2022/06/14 11:56:48;;;;;;;5.68;3.05;;;34.50;91.70;;;;;;4913327;29;20036;-57
2022/06/14 11:59:34;;;;;;;7.38;3.20;;;34.80;90.50;;;;;;4913300;29;20474;-58
2022/06/14 12:02:27;;;;;;;4.80;2.70;;;34.80;90.50;;;;;;4899902;29;20052;-58
2022/06/14 12:04:55;;;;;;;5.85;2.58;;;35.30;91.60;;;;;;4899271;29;20172;-58
2022/06/14 12:07:38;;;;;;;4.63;2.95;;;35.20;91.90;;;;;;4913471;29;20412;-57
2022/06/14 12:10:06;;;;;;;5.18;3.10;;;34.80;90.70;;;;;;4913124;29;20505;-58
2022/06/14 12:13:20;;;;;;;6.80;3.10;;;34.20;91.20;;;;;;4913303;29;20394;-57
2022/06/14 12:16:12;;;;;;;3.42;2.90;;;34.40;91.40;;;;;;4855381;29;20476;-57
2022/06/14 12:18:41;;;;;;;7.45;3.05;;;35.00;90.80;;;;;;4854290;29;20044;-58
2022/06/14 12:21:18;;;;;;;5.13;2.75;;;35.10;91.30;;;;;;4908556;29;20024;-58
2022/06/14 12:23:50;;;;;;;5.95;3.28;;;35.80;90.60;;;;;;4912430;29;20067;-58
2022/06/14 12:26:34;;;;;;;5.85;3.05;;;34.80;91.30;;;;;;4912747;29;20028;-57
2022/06/14 12:29:16;;;;;;;4.95;2.90;;;35.10;91.00;;;;;;4899812;29;20454;-59
2022/06/14 12:31:46;;;;;;;6.38;3.22;;;35.20;90.50;;;;;;4912816;29;20032;-58
2022/06/14 12:34:43;;;;;;;9.25;3.60;;;35.50;91.20;;;;;;4909904;29;20560;-58
2022/06/14 12:37:40;;;;;;;4.95;3.22;;;35.10;91.30;;;;;;4914176;29;20051;-58
2022/06/14 12:40:14;;;;;;;7.25;3.30;;;35.70;90.30;;;;;;4913206;29;20043;-57
2022/06/14 12:43:12;;;;;;;7.45;3.08;;;35.70;90.10;;;;;;4912327;29;20086;-58
2022/06/14 12:45:50;;;;;;;6.70;3.22;;;35.30;90.20;;;;;;4911800;29;20032;-58
2022/06/14 12:48:33;;;;;;;5.28;3.10;;;34.70;90.90;;;;;;4912212;29;20154;-58
2022/06/14 12:51:08;;;;;;;4.93;3.13;;;35.30;90.50;;;;;;4983182;28;20452;-57
2022/06/14 12:53:40;;;;;;;4.07;3.15;;;35.20;89.90;;;;;;4988812;28;20030;-57
2022/06/14 12:56:36;;;;;;;3.42;2.95;;;35.30;87.40;;;;;;4988415;28;20097;-58
2022/06/14 12:59:26;;;;;;;6.32;2.88;;;34.30;90.20;;;;;;4975009;28;20042;-57
2022/06/14 13:02:03;;;;;;;5.28;2.85;;;34.90;89.10;;;;;;4973936;28;20031;-58
2022/06/14 13:04:36;;;;;;;5.45;3.20;;;35.00;89.10;;;;;;4991062;28;20045;-58
2022/06/14 13:07:20;;;;;;;7.25;3.30;;;34.50;90.00;;;;;;4991218;28;20030;-57
2022/06/14 13:10:19;;;;;;;4.72;3.00;;;34.10;89.30;;;;;;4989372;28;20077;-58
2022/06/14 13:13:17;;;;;;;5.68;2.92;;;34.70;90.10;;;;;;4989412;28;20045;-58
2022/06/14 13:16:00;;;;;;;5.72;3.30;;;35.60;89.10;;;;;;4990511;28;20391;-57
2022/06/14 13:18:42;;;;;;;4.00;2.83;;;35.30;89.40;;;;;;4988127;28;20062;-58
2022/06/14 13:21:16;;;;;;;6.20;2.97;;;34.90;90.10;;;;;;4988601;28;20026;-57
2022/06/14 13:23:42;;;;;;;7.22;3.25;;;35.20;87.50;;;;;;4988084;28;20105;-58
2022/06/14 13:26:22;;;;;;;9.05;3.38;;;35.40;89.40;;;;;;4988272;28;20034;-58
2022/06/14 13:28:59;;;;;;;6.10;3.05;;;35.80;87.30;;;;;;4974293;28;20068;-57
2022/06/14 13:31:45;;;;;;;6.78;3.30;;;35.60;88.70;;;;;;4994626;28;20029;-58
2022/06/14 13:34:29;;;;;;;8.25;2.92;;;35.60;88.10;;;;;;4995762;28;20042;-58
2022/06/14 13:37:24;;;;;;;6.78;3.20;;;35.60;88.60;;;;;;4996156;28;20027;-58
2022/06/14 13:39:59;;;;;;;6.32;2.97;;;35.60;88.20;;;;;;4994429;28;20034;-57
2022/06/14 13:42:45;;;;;;;7.82;3.08;;;35.50;88.30;;;;;;4991705;28;20034;-51
2022/06/14 13:45:32;;;;;;;9.35;3.42;;;35.20;90.00;;;;;;4991887;28;20116;-57
2022/06/14 13:48:10;;;;;;;7.90;3.20;;;35.30;90.20;;;;;;4991731;28;20417;-57
2022/06/14 13:50:44;;;;;;;7.63;3.33;;;35.20;89.00;;;;;;4991858;28;20023;-57
2022/06/14 13:53:27;;;;;;;5.68;3.10;;;35.10;89.20;;;;;;4992010;28;20311;-58
2022/06/14 13:55:59;;;;;;;;;;;35.70;88.70;;;;;;4977431;28;20082;-58
2022/06/14 13:58:50;;;;;;;7.03;3.33;;;35.40;87.90;;;;;;4993657;28;19948;-57
2022/06/14 14:01:39;;;;;;;6.05;3.40;;;35.70;89.30;;;;;;4991574;28;20030;-58
2022/06/14 14:04:25;;;;;;;4.97;3.40;;;35.60;89.40;;;;;;4994673;28;20077;-58
2022/06/14 14:07:18;;;;;;;8.73;3.70;;;35.40;89.40;;;;;;4995126;28;20037;-58